createdAt,value
2022-11-16T00:00:10.735Z,95177.53
2022-11-16T00:02:40.436Z,95174.13
2022-11-16T00:05:09.452Z,95175.47
2022-11-16T00:07:37.777Z,95177.84
2022-11-16T00:10:06.818Z,95173.66
2022-11-16T00:12:35.037Z,95178.44
2022-11-16T00:15:03.310Z,95173.66
2022-11-16T00:17:31.599Z,95170.19
2022-11-16T00:20:01.333Z,95126.50
2022-11-16T00:22:29.625Z,95168.88
2022-11-16T00:24:57.887Z,95173.72
2022-11-16T00:27:26.184Z,95163.50
2022-11-16T00:29:54.494Z,95162.44
2022-11-16T00:32:23.683Z,95164.25
2022-11-16T00:34:51.896Z,95168.50
2022-11-16T00:37:21.637Z,95162.38
2022-11-16T00:39:49.855Z,95170.03
2022-11-16T00:42:18.080Z,95160.16
2022-11-16T00:44:46.322Z,95160.78
2022-11-16T00:47:14.585Z,95159.25
2022-11-16T00:49:42.767Z,95158.78
2022-11-16T00:52:10.952Z,95159.81
2022-11-16T00:54:40.672Z,95149.25
2022-11-16T00:57:08.995Z,95161.88
2022-11-16T00:59:37.191Z,95155.84
2022-11-16T01:02:05.417Z,95148.31
2022-11-16T01:04:33.649Z,95146.72
2022-11-16T01:07:01.923Z,95151.03
2022-11-16T01:09:30.210Z,95139.84
2022-11-16T01:12:12.845Z,95148.41
2022-11-16T01:14:44.545Z,95141.31
2022-11-16T01:17:13.158Z,95145.81
2022-11-16T01:19:42.117Z,95136.63
2022-11-16T01:22:10.385Z,95141.81
2022-11-16T01:24:38.622Z,95142.94
2022-11-16T01:27:08.234Z,95126.06
2022-11-16T01:29:36.476Z,95141.94
2022-11-16T01:32:04.743Z,95077.69
2022-11-16T01:34:34.112Z,95129.25
2022-11-16T01:37:02.361Z,95140.59
2022-11-16T01:39:30.567Z,95133.47
2022-11-16T01:41:58.883Z,95131.09
2022-11-16T01:45:09.514Z,95129.50
2022-11-16T01:47:39.235Z,95119.47
2022-11-16T01:50:11.556Z,95121.81
2022-11-16T01:52:46.411Z,95113.88
2022-11-16T01:55:14.890Z,95110.47
2022-11-16T01:57:45.517Z,95112.53
2022-11-16T02:00:15.692Z,95086.91
2022-11-16T02:02:45.793Z,95105.41
2022-11-16T02:05:17.785Z,95098.53
2022-11-16T02:08:25.546Z,95091.94
2022-11-16T02:11:11.887Z,95086.69
2022-11-16T02:13:52.593Z,95080.84
2022-11-16T02:16:33.378Z,95081.13
2022-11-16T02:19:28.316Z,95083.47
2022-11-16T02:22:07.275Z,95080.81
2022-11-16T02:24:45.952Z,95058.38
2022-11-16T02:27:49.566Z,95086.91
2022-11-16T02:30:21.173Z,95081.22
2022-11-16T02:32:54.948Z,95078.88
2022-11-16T02:35:27.790Z,95081.84
2022-11-16T02:38:00.409Z,95097.03
2022-11-16T02:40:33.034Z,95093.22
2022-11-16T02:43:06.428Z,95090.44
2022-11-16T02:45:41.355Z,95088.50
2022-11-16T02:48:14.467Z,95072.28
2022-11-16T02:50:44.571Z,95081.38
2022-11-16T02:53:12.866Z,95082.44
2022-11-16T02:55:41.688Z,95071.88
2022-11-16T02:58:12.382Z,95076.63
2022-11-16T03:00:48.232Z,95068.97
2022-11-16T03:03:28.292Z,95066.06
2022-11-16T03:06:03.161Z,95066.59
2022-11-16T03:08:34.057Z,95030.63
2022-11-16T03:11:23.156Z,95065.00
2022-11-16T03:13:52.423Z,95057.59
2022-11-16T03:16:27.320Z,95054.97
2022-11-16T03:18:58.664Z,95064.44
2022-11-16T03:21:34.430Z,94955.59
2022-11-16T03:24:03.279Z,95062.06
2022-11-16T03:26:39.732Z,95047.03
2022-11-16T03:29:15.581Z,95060.78
2022-11-16T03:31:50.173Z,95061.00
2022-11-16T03:34:23.606Z,95049.03
2022-11-16T03:36:54.341Z,95053.75
2022-11-16T03:39:26.956Z,95056.97
2022-11-16T03:41:57.675Z,95035.81
2022-11-16T03:44:26.944Z,95044.78
2022-11-16T03:46:56.826Z,95049.66
2022-11-16T03:49:25.278Z,95032.22
2022-11-16T03:51:53.758Z,95030.97
2022-11-16T03:54:22.224Z,95023.50
2022-11-16T03:56:50.497Z,95007.84
2022-11-16T03:59:18.727Z,95016.91
2022-11-16T04:01:46.927Z,95021.16
2022-11-16T04:04:30.415Z,95016.88
2022-11-16T04:07:16.107Z,95012.34
2022-11-16T04:10:01.543Z,95003.56
2022-11-16T04:12:47.095Z,94984.56
2022-11-16T04:15:31.771Z,95003.84
2022-11-16T04:18:17.134Z,95000.03
2022-11-16T04:21:04.159Z,94991.22
2022-11-16T04:23:50.000Z,94994.63
2022-11-16T04:26:18.461Z,94986.41
2022-11-16T04:28:45.818Z,94995.69
2022-11-16T04:31:31.730Z,94989.97
2022-11-16T04:34:17.220Z,94985.94
2022-11-16T04:37:04.234Z,94992.22
2022-11-16T04:39:32.457Z,94983.22
2022-11-16T04:42:16.029Z,94984.25
2022-11-16T04:45:01.895Z,94989.34
2022-11-16T04:47:30.194Z,94994.41
2022-11-16T04:49:58.411Z,94944.97
2022-11-16T04:52:28.001Z,94984.88
2022-11-16T04:54:56.265Z,94978.78
2022-11-16T04:57:24.581Z,94987.84
2022-11-16T04:59:52.768Z,94990.78
2022-11-16T05:02:21.175Z,94981.78
2022-11-16T05:04:49.450Z,94984.63
2022-11-16T05:07:17.717Z,94886.16
2022-11-16T05:09:48.834Z,94910.44
2022-11-16T05:12:20.761Z,94971.41
2022-11-16T05:14:49.025Z,94969.88
2022-11-16T05:17:18.176Z,94990.47
2022-11-16T05:20:03.887Z,94989.69
2022-11-16T05:22:32.181Z,94994.94
2022-11-16T05:25:01.894Z,94994.72
2022-11-16T05:27:31.216Z,94989.41
2022-11-16T05:29:59.770Z,94988.28
2022-11-16T05:32:29.414Z,94989.03
2022-11-16T05:34:57.611Z,94989.88
2022-11-16T05:37:27.004Z,94979.84
2022-11-16T05:39:57.158Z,94973.00
2022-11-16T05:42:26.840Z,94987.72
2022-11-16T05:44:55.085Z,94990.09
2022-11-16T05:47:23.337Z,94983.66
2022-11-16T05:49:51.647Z,94981.16
2022-11-16T05:52:19.898Z,94944.25
2022-11-16T05:54:48.109Z,94991.53
2022-11-16T05:57:17.571Z,94985.41
2022-11-16T05:59:47.260Z,95017.41
2022-11-16T06:02:15.480Z,94976.63
2022-11-16T06:04:43.737Z,94978.41
2022-11-16T06:07:12.075Z,94985.03
2022-11-16T06:09:40.350Z,94982.03
2022-11-16T06:12:09.401Z,94983.59
2022-11-16T06:14:37.744Z,94979.81
2022-11-16T06:17:07.399Z,94984.31
2022-11-16T06:19:36.712Z,94976.16
2022-11-16T06:22:04.927Z,94971.84
2022-11-16T06:24:33.161Z,94967.31
2022-11-16T06:27:01.563Z,94969.44
2022-11-16T06:29:29.788Z,94972.91
2022-11-16T06:31:58.072Z,94965.44
2022-11-16T06:34:27.698Z,94968.78
2022-11-16T06:36:55.942Z,94963.28
2022-11-16T06:39:24.236Z,94961.34
2022-11-16T06:41:52.453Z,94957.19
2022-11-16T06:44:20.648Z,94965.34
2022-11-16T06:46:48.808Z,94961.09
2022-11-16T06:49:17.086Z,94967.63
2022-11-16T06:51:46.695Z,94968.41
2022-11-16T06:57:00.419Z,94970.31
2022-11-16T06:59:28.612Z,94963.38
2022-11-16T07:01:56.935Z,94959.19
2022-11-16T07:04:25.226Z,94953.94
2022-11-16T07:06:55.061Z,94956.88
2022-11-16T07:09:23.300Z,94955.09
2022-11-16T07:11:51.563Z,94955.09
2022-11-16T07:14:20.494Z,94952.16
2022-11-16T07:16:48.711Z,94944.66
2022-11-16T07:19:17.409Z,94948.25
2022-11-16T07:21:45.687Z,94942.69
2022-11-16T07:24:18.679Z,94938.66
2022-11-16T07:26:46.997Z,94939.16
2022-11-16T07:29:15.778Z,94944.81
2022-11-16T07:31:44.069Z,94941.09
2022-11-16T07:34:15.432Z,94941.03
2022-11-16T07:36:43.938Z,94944.13
2022-11-16T07:39:12.134Z,94941.56
2022-11-16T07:41:44.428Z,94942.84
2022-11-16T07:44:12.671Z,94950.84
2022-11-16T07:46:48.799Z,94944.63
2022-11-16T07:49:19.657Z,94943.59
2022-11-16T07:51:47.909Z,94941.38
2022-11-16T07:54:17.060Z,94903.56
2022-11-16T07:56:46.665Z,94933.53
2022-11-16T07:59:14.901Z,94942.66
2022-11-16T08:01:43.157Z,94938.34
2022-11-16T08:04:11.360Z,94938.03
2022-11-16T08:06:39.570Z,94932.81
2022-11-16T08:09:07.789Z,94943.53
2022-11-16T08:11:36.012Z,94934.16
2022-11-16T08:14:05.719Z,94923.44
2022-11-16T08:16:34.284Z,94927.72
2022-11-16T08:19:02.531Z,94919.91
2022-11-16T08:21:30.774Z,94916.38
2022-11-16T08:23:59.243Z,94920.53
2022-11-16T08:26:28.317Z,94917.19
2022-11-16T08:28:56.743Z,94912.63
2022-11-16T08:31:28.016Z,94904.91
2022-11-16T08:33:56.879Z,94895.16
2022-11-16T08:36:25.232Z,94903.78
2022-11-16T08:38:54.097Z,94899.41
2022-11-16T08:41:22.851Z,94894.75
2022-11-16T08:43:53.529Z,94887.28
2022-11-16T08:46:22.261Z,94875.97
2022-11-16T08:48:57.056Z,94880.41
2022-11-16T08:54:12.357Z,94868.25
2022-11-16T08:56:40.616Z,94861.91
2022-11-16T08:59:08.835Z,94860.44
2022-11-16T09:01:37.099Z,94864.03
2022-11-16T09:04:07.046Z,94854.63
2022-11-16T09:06:37.335Z,94859.09
2022-11-16T09:09:06.041Z,94853.00
2022-11-16T09:11:34.525Z,94854.56
2022-11-16T09:16:48.366Z,94849.28
2022-11-16T09:19:17.935Z,94837.66
2022-11-16T09:21:46.671Z,94822.97
2022-11-16T09:24:14.978Z,94821.56
2022-11-16T09:26:43.210Z,94817.31
2022-11-16T09:29:14.286Z,94819.13
2022-11-16T09:31:42.754Z,94824.19
2022-11-16T09:34:11.125Z,94815.69
2022-11-16T09:36:40.814Z,94806.63
2022-11-16T09:42:08.608Z,94804.91
2022-11-16T09:44:59.495Z,94810.16
2022-11-16T09:47:39.794Z,94799.28
2022-11-16T09:50:16.583Z,94796.19
2022-11-16T09:52:50.686Z,94788.97
2022-11-16T09:55:25.874Z,94775.44
2022-11-16T09:57:58.700Z,94772.09
2022-11-16T10:00:27.010Z,94764.34
2022-11-16T10:03:03.338Z,94761.75
2022-11-16T10:05:38.675Z,94762.91
2022-11-16T10:08:16.031Z,94755.94
2022-11-16T10:10:52.370Z,94754.53
2022-11-16T10:13:29.430Z,94754.84
2022-11-16T10:16:06.402Z,94745.75
2022-11-16T10:18:47.943Z,94747.28
2022-11-16T10:21:37.436Z,94736.63
2022-11-16T10:24:26.289Z,94721.41
2022-11-16T10:27:08.866Z,94567.25
2022-11-16T10:29:49.424Z,94714.03
2022-11-16T10:32:26.112Z,94714.41
2022-11-16T10:34:56.064Z,94695.53
2022-11-16T10:37:31.627Z,94681.34
2022-11-16T10:40:03.722Z,94680.19
2022-11-16T10:42:39.342Z,94680.25
2022-11-16T10:45:16.787Z,94672.69
2022-11-16T10:47:51.331Z,94664.41
2022-11-16T10:50:33.073Z,94659.03
2022-11-16T10:53:01.996Z,94649.81
2022-11-16T10:55:31.888Z,94670.53
2022-11-16T10:58:02.012Z,94664.66
2022-11-16T11:00:39.601Z,94666.81
2022-11-16T11:03:10.831Z,94658.78
2022-11-16T11:05:49.262Z,94653.50
2022-11-16T11:08:27.496Z,94647.97
2022-11-16T11:11:22.804Z,94650.50
2022-11-16T11:14:05.273Z,94637.75
2022-11-16T11:16:33.462Z,94645.69
2022-11-16T11:19:20.386Z,94630.31
2022-11-16T11:21:49.295Z,94634.22
2022-11-16T11:27:08.945Z,94616.72
2022-11-16T11:29:38.967Z,94611.94
2022-11-16T11:32:16.887Z,94611.38
2022-11-16T11:34:50.830Z,94612.13
2022-11-16T11:37:22.999Z,94613.84
2022-11-16T11:40:06.704Z,94606.41
2022-11-16T11:42:36.711Z,94602.28
2022-11-16T11:45:09.395Z,94606.28
2022-11-16T11:47:58.689Z,94594.75
2022-11-16T11:50:38.085Z,94599.09
2022-11-16T11:53:09.550Z,94606.22
2022-11-16T11:55:37.873Z,94600.75
2022-11-16T11:58:12.676Z,94583.06
2022-11-16T12:01:05.828Z,94589.59
2022-11-16T12:03:52.359Z,94440.59
2022-11-16T12:06:29.100Z,94587.03
2022-11-16T12:09:09.869Z,94582.53
2022-11-16T12:11:50.647Z,94584.56
2022-11-16T12:14:34.189Z,94566.00
2022-11-16T12:17:08.635Z,94568.72
2022-11-16T12:19:56.448Z,94576.16
2022-11-16T12:22:42.287Z,94569.91
2022-11-16T12:25:22.550Z,94567.75
2022-11-16T12:28:05.664Z,94569.38
2022-11-16T12:30:45.196Z,94569.22
2022-11-16T12:33:26.023Z,94562.66
2022-11-16T12:36:02.535Z,94564.66
2022-11-16T12:38:59.812Z,94558.50
2022-11-16T12:41:48.200Z,94560.09
2022-11-16T12:44:23.560Z,94557.16
2022-11-16T12:47:05.697Z,94555.84
2022-11-16T12:49:57.632Z,94546.25
2022-11-16T12:52:43.640Z,94514.16
2022-11-16T12:55:27.130Z,94541.84
2022-11-16T12:58:15.725Z,94535.75
2022-11-16T13:00:59.774Z,94526.97
2022-11-16T13:03:35.378Z,94526.47
2022-11-16T13:06:08.251Z,94520.03
2022-11-16T13:08:48.344Z,94523.25
2022-11-16T13:11:21.943Z,94522.97
2022-11-16T13:13:54.044Z,94506.75
2022-11-16T13:16:24.128Z,94519.88
2022-11-16T13:18:55.649Z,94520.97
2022-11-16T13:21:41.071Z,94528.41
2022-11-16T13:24:28.512Z,94529.19
2022-11-16T13:27:02.731Z,94525.16
2022-11-16T13:29:38.387Z,94526.97
2022-11-16T13:32:14.913Z,94518.66
2022-11-16T13:34:45.423Z,94510.63
2022-11-16T13:37:48.231Z,94517.88
2022-11-16T13:40:28.397Z,94527.00
2022-11-16T13:43:04.802Z,94515.16
2022-11-16T13:45:36.309Z,94515.81
2022-11-16T13:48:18.159Z,94510.88
2022-11-16T13:50:52.949Z,94510.44
2022-11-16T13:56:17.053Z,94519.75
2022-11-16T13:58:47.653Z,94507.28
2022-11-16T14:01:16.972Z,94504.66
2022-11-16T14:03:48.423Z,94512.44
2022-11-16T14:06:53.483Z,94511.25
2022-11-16T14:09:45.582Z,94515.00
2022-11-16T14:12:51.603Z,94511.25
2022-11-16T14:15:22.092Z,94509.66
2022-11-16T14:17:54.846Z,94513.59
2022-11-16T14:20:34.674Z,94512.78
2022-11-16T14:23:17.564Z,94514.81
2022-11-16T14:25:56.821Z,94510.38
2022-11-16T14:28:39.532Z,94511.81
2022-11-16T14:31:17.137Z,94509.00
2022-11-16T14:33:52.210Z,94515.94
2022-11-16T14:36:37.978Z,94512.25
2022-11-16T14:39:24.904Z,94516.94
2022-11-16T14:41:55.466Z,94509.81
2022-11-16T14:44:27.874Z,94507.22
2022-11-16T14:46:57.214Z,94500.72
2022-11-16T14:49:28.365Z,94504.34
2022-11-16T14:52:00.253Z,94505.06
2022-11-16T14:54:35.120Z,94501.28
2022-11-16T14:57:06.890Z,94502.31
2022-11-16T14:59:35.104Z,94484.28
2022-11-16T15:02:20.583Z,94504.09
2022-11-16T15:04:49.911Z,94497.06
2022-11-16T15:07:20.527Z,94492.00
2022-11-16T15:09:51.577Z,94426.56
2022-11-16T15:12:42.592Z,94491.91
2022-11-16T15:15:17.105Z,94492.91
2022-11-16T15:17:47.022Z,94494.81
2022-11-16T15:20:20.953Z,94488.00
2022-11-16T15:22:52.215Z,94501.09
2022-11-16T15:25:29.426Z,94501.00
2022-11-16T15:28:01.927Z,94498.00
2022-11-16T15:30:33.163Z,94501.50
2022-11-16T15:33:03.814Z,94505.56
2022-11-16T15:35:33.959Z,94513.25
2022-11-16T15:38:07.275Z,94497.56
2022-11-16T15:40:36.511Z,94493.78
2022-11-16T15:43:07.789Z,94505.25
2022-11-16T15:45:37.768Z,94493.16
2022-11-16T15:48:07.133Z,94493.69
2022-11-16T15:50:35.447Z,94411.09
2022-11-16T15:53:03.734Z,94487.91
2022-11-16T15:55:35.537Z,94503.31
2022-11-16T15:58:15.314Z,94495.13
2022-11-16T16:00:48.448Z,94488.69
2022-11-16T16:03:23.043Z,94489.00
2022-11-16T16:05:51.966Z,94499.09
2022-11-16T16:08:28.308Z,94499.81
2022-11-16T16:11:27.666Z,94502.78
2022-11-16T16:14:01.795Z,94516.94
2022-11-16T16:16:32.619Z,94507.91
2022-11-16T16:19:09.291Z,94511.84
2022-11-16T16:21:45.888Z,94465.59
2022-11-16T16:24:36.188Z,94498.06
2022-11-16T16:27:11.705Z,94514.25
2022-11-16T16:29:41.419Z,94512.00
2022-11-16T16:32:17.321Z,94499.47
2022-11-16T16:34:45.549Z,94506.28
2022-11-16T16:37:14.053Z,94511.84
2022-11-16T16:39:42.304Z,94516.41
2022-11-16T16:42:13.212Z,94519.84
2022-11-16T16:44:43.375Z,94509.59
2022-11-16T16:47:11.903Z,94521.53
2022-11-16T16:49:40.298Z,94520.09
2022-11-16T16:52:09.691Z,94513.56
2022-11-16T16:54:37.927Z,94453.03
2022-11-16T16:57:06.257Z,94505.50
2022-11-16T16:59:34.536Z,94514.75
2022-11-16T17:02:04.331Z,94525.81
2022-11-16T17:04:34.148Z,94525.69
2022-11-16T17:07:02.399Z,94513.13
2022-11-16T17:09:30.951Z,94528.91
2022-11-16T17:11:59.239Z,94522.66
2022-11-16T17:14:27.639Z,94523.09
2022-11-16T17:16:55.872Z,94515.59
2022-11-16T17:19:25.579Z,94508.84
2022-11-16T17:21:54.202Z,94515.66
2022-11-16T17:24:22.735Z,94518.03
2022-11-16T17:26:51.019Z,94521.81
2022-11-16T17:29:19.384Z,94525.09
2022-11-16T17:31:48.420Z,94531.03
2022-11-16T17:34:16.652Z,94515.50
2022-11-16T17:36:46.314Z,94529.22
2022-11-16T17:39:16.019Z,94530.47
2022-11-16T17:41:44.399Z,94529.22
2022-11-16T17:44:17.173Z,94538.66
2022-11-16T17:46:48.532Z,94509.66
2022-11-16T17:49:16.828Z,94540.09
2022-11-16T17:51:48.748Z,94518.22
2022-11-16T17:54:17.080Z,94541.97
2022-11-16T17:56:45.332Z,94532.47
2022-11-16T17:59:13.591Z,94527.06
2022-11-16T18:01:41.977Z,94508.66
2022-11-16T18:04:10.332Z,94522.78
2022-11-16T18:06:39.548Z,94528.84
2022-11-16T18:09:09.270Z,94489.78
2022-11-16T18:11:40.004Z,94531.28
2022-11-16T18:14:11.557Z,94470.66
2022-11-16T18:16:41.173Z,94521.41
2022-11-16T18:19:10.007Z,94519.03
2022-11-16T18:21:41.100Z,94520.72
2022-11-16T18:24:11.449Z,94525.50
2022-11-16T18:26:40.459Z,94439.34
2022-11-16T18:29:12.543Z,94456.59
2022-11-16T18:31:41.356Z,94513.75
2022-11-16T18:34:20.528Z,94420.50
2022-11-16T18:36:51.252Z,94518.91
2022-11-16T18:39:24.268Z,94520.91
2022-11-16T18:41:56.427Z,94516.38
2022-11-16T18:44:25.256Z,94523.44
2022-11-16T18:46:53.645Z,94515.91
2022-11-16T18:49:25.773Z,94516.91
2022-11-16T18:51:54.010Z,94526.22
2022-11-16T18:54:27.044Z,94519.22
2022-11-16T18:56:56.982Z,94525.22
2022-11-16T18:59:27.511Z,94520.53
2022-11-16T19:01:56.441Z,94518.03
2022-11-16T19:04:27.287Z,94515.81
2022-11-16T19:06:56.163Z,94519.00
2022-11-16T19:09:26.545Z,94497.09
2022-11-16T19:11:55.046Z,94510.25
2022-11-16T19:14:23.340Z,94523.41
2022-11-16T19:16:56.867Z,94522.75
2022-11-16T19:19:27.839Z,94503.66
2022-11-16T19:21:58.752Z,94508.84
2022-11-16T19:24:29.003Z,94522.88
2022-11-16T19:26:57.658Z,94521.19
2022-11-16T19:29:26.174Z,94518.63
2022-11-16T19:31:54.518Z,94514.22
2022-11-16T19:34:22.765Z,94506.38
2022-11-16T19:36:51.540Z,94515.03
2022-11-16T19:39:19.912Z,94528.34
2022-11-16T19:41:49.716Z,94521.84
2022-11-16T19:44:18.242Z,94526.16
2022-11-16T19:46:46.527Z,94498.81
2022-11-16T19:49:20.221Z,94520.75
2022-11-16T19:51:49.539Z,94517.97
2022-11-16T19:54:17.833Z,94516.75
2022-11-16T19:56:49.318Z,94528.19
2022-11-16T19:59:21.695Z,94525.13
2022-11-16T20:01:50.030Z,94521.19
2022-11-16T20:04:18.267Z,94514.16
2022-11-16T20:06:46.555Z,94521.19
2022-11-16T20:09:14.804Z,94529.13
2022-11-16T20:11:43.385Z,94513.91
2022-11-16T20:14:13.981Z,94509.75
2022-11-16T20:16:50.452Z,94519.13
2022-11-16T20:19:20.609Z,94449.97
2022-11-16T20:21:48.912Z,94516.16
2022-11-16T20:24:19.075Z,94518.19
2022-11-16T20:26:49.091Z,94526.16
2022-11-16T20:29:19.244Z,94523.09
2022-11-16T20:31:49.035Z,94518.69
2022-11-16T20:34:20.432Z,94505.13
2022-11-16T20:36:50.936Z,94498.75
2022-11-16T20:39:20.841Z,94485.50
2022-11-16T20:41:49.764Z,94473.16
2022-11-16T20:44:22.181Z,94501.06
2022-11-16T20:46:52.928Z,94509.84
2022-11-16T20:49:21.439Z,94499.59
2022-11-16T20:51:51.179Z,94496.31
2022-11-16T20:54:19.440Z,94496.41
2022-11-16T20:56:48.312Z,94498.19
2022-11-16T20:59:16.565Z,94494.91
2022-11-16T21:01:47.875Z,94485.38
2022-11-16T21:04:17.771Z,94494.47
2022-11-16T21:06:45.935Z,94488.97
2022-11-16T21:09:16.018Z,94492.38
2022-11-16T21:12:01.738Z,94496.50
2022-11-16T21:14:30.077Z,94486.06
2022-11-16T21:16:58.304Z,94492.41
2022-11-16T21:19:27.912Z,94480.84
2022-11-16T21:21:56.061Z,94490.28
2022-11-16T21:24:24.938Z,94484.59
2022-11-16T21:26:53.480Z,94492.94
2022-11-16T21:29:26.030Z,94490.69
2022-11-16T21:31:54.341Z,94486.28
2022-11-16T21:34:24.501Z,94491.34
2022-11-16T21:36:54.108Z,94489.28
2022-11-16T21:39:22.480Z,94484.50
2022-11-16T21:41:50.689Z,94494.75
2022-11-16T21:44:18.854Z,94483.31
2022-11-16T21:46:47.081Z,94492.75
2022-11-16T21:49:15.368Z,94493.56
2022-11-16T21:51:43.621Z,94494.88
2022-11-16T21:54:13.952Z,94501.28
2022-11-16T21:56:42.237Z,94499.00
2022-11-16T21:59:10.478Z,94499.63
2022-11-16T22:01:52.482Z,94501.19
2022-11-16T22:04:38.011Z,94494.81
2022-11-16T22:07:23.613Z,94482.00
2022-11-16T22:09:53.213Z,94487.81
2022-11-16T22:12:21.442Z,94486.72
2022-11-16T22:14:49.708Z,94489.22
2022-11-16T22:17:17.936Z,94484.22
2022-11-16T22:19:46.140Z,94495.03
2022-11-16T22:22:14.687Z,94490.47
2022-11-16T22:24:43.022Z,94476.53
2022-11-16T22:27:12.755Z,94480.16
2022-11-16T22:29:41.010Z,94484.59
2022-11-16T22:32:09.333Z,94490.06
2022-11-16T22:34:37.894Z,94479.84
2022-11-16T22:37:06.190Z,94487.38
2022-11-16T22:39:34.805Z,94479.28
2022-11-16T22:42:02.994Z,94490.75
2022-11-16T22:44:32.709Z,94485.16
2022-11-16T22:47:00.885Z,94480.50
2022-11-16T22:49:29.084Z,94491.94
2022-11-16T22:51:57.391Z,94482.41
2022-11-16T22:54:28.598Z,94477.25
2022-11-16T22:56:57.215Z,94473.81
2022-11-16T22:59:45.548Z,94479.00
2022-11-16T23:02:13.825Z,94471.16
2022-11-16T23:04:42.091Z,94464.28
2022-11-16T23:07:10.334Z,94457.03
2022-11-16T23:09:38.643Z,94457.75
2022-11-16T23:12:24.509Z,94459.81
2022-11-16T23:15:11.508Z,94456.41
2022-11-16T23:17:39.765Z,94461.59
2022-11-16T23:20:26.916Z,94458.97
2022-11-16T23:23:12.364Z,94465.13
2022-11-16T23:25:58.275Z,94457.00
2022-11-16T23:28:26.963Z,94451.16
2022-11-16T23:30:56.564Z,94451.41
2022-11-16T23:33:43.997Z,94445.38
2022-11-16T23:36:12.438Z,94451.19
2022-11-16T23:38:40.910Z,94440.66
2022-11-16T23:41:26.815Z,94436.66
2022-11-16T23:44:00.832Z,94427.31
2022-11-16T23:46:32.539Z,94401.16
2022-11-16T23:49:01.626Z,94411.88
2022-11-16T23:51:29.852Z,94420.38
2022-11-16T23:53:58.255Z,94416.91
2022-11-16T23:56:26.494Z,94418.56
2022-11-16T23:58:57.164Z,94407.41
